Time;durP1;ratioP1;P1;durP2;ratioP2;P2;SDS_P1;SDS_P2;PMS_P1;PMS_P2;Temp;Humidity;BMP_temperature;BMP_pressure;BME280_temperature;BME280_humidity;BME280_pressure;Samples;Min_cycle;Max_cycle;Signal;HPM_P1;HPM_P2
2021/07/01 00:03:27;;;;;;;;;;;23.50;44.20;;;;;;8267111;28;19918;-49
2021/07/01 00:07:27;;;;;;;;;;;23.50;44.20;;;;;;8270811;28;19917;-48
2021/07/01 00:11:27;;;;;;;;;;;23.50;44.20;;;;;;8266803;28;20282;-49
2021/07/01 00:15:29;;;;;;;;;;;23.50;44.20;;;;;;8266539;28;19914;-47
2021/07/01 00:19:30;;;;;;;;;;;23.50;44.20;;;;;;8265919;28;19957;-48
2021/07/01 00:23:30;;;;;;;;;;;23.50;44.20;;;;;;8266694;28;19933;-49
2021/07/01 00:27:30;;;;;;;;;;;23.50;44.20;;;;;;8270591;28;19910;-48
2021/07/01 00:31:31;;;;;;;;;;;23.40;44.20;;;;;;8265002;28;19944;-48
2021/07/01 00:35:31;;;;;;;;;;;23.40;44.20;;;;;;8266013;28;20068;-47
2021/07/01 00:39:32;;;;;;;;;;;23.50;44.30;;;;;;8265790;28;19929;-49
2021/07/01 00:43:33;;;;;;;;;;;23.40;44.20;;;;;;8269775;28;20405;-48
2021/07/01 00:47:33;;;;;;;;;;;23.40;44.20;;;;;;8265888;28;19914;-48
2021/07/01 00:51:34;;;;;;;;;;;23.40;44.20;;;;;;8265677;28;19917;-48
2021/07/01 00:55:35;;;;;;;;;;;23.40;44.20;;;;;;8264919;28;20423;-48
2021/07/01 00:59:36;;;;;;;;;;;23.40;44.80;;;;;;8269808;28;19918;-49
2021/07/01 01:03:37;;;;;;;;;;;23.40;44.20;;;;;;8265612;28;19940;-49
2021/07/01 01:07:38;;;;;;;;;;;23.40;44.30;;;;;;8264549;28;19970;-49
2021/07/01 01:11:39;;;;;;;;;;;23.30;44.20;;;;;;8264944;28;20366;-49
2021/07/01 01:15:39;;;;;;;;;;;23.40;44.30;;;;;;8264115;28;19955;-48
2021/07/01 01:19:39;;;;;;;;;;;23.40;44.30;;;;;;8268483;28;19964;-48
2021/07/01 01:23:40;;;;;;;;;;;23.30;44.20;;;;;;8264820;28;19913;-49
2021/07/01 01:27:41;;;;;;;;;;;23.30;44.20;;;;;;8264464;28;19917;-47
2021/07/01 01:31:41;;;;;;;;;;;23.40;44.30;;;;;;8263862;28;19921;-49
2021/07/01 01:35:42;;;;;;;;;;;23.30;44.20;;;;;;8268752;28;20048;-47
2021/07/01 01:39:49;;;;;;;;;;;23.40;44.30;;;;;;8263927;28;19928;-48
2021/07/01 01:43:49;;;;;;;;;;;23.30;44.20;;;;;;8263348;28;19921;-47
2021/07/01 01:47:50;;;;;;;;;;;23.40;44.30;;;;;;8263928;28;19920;-49
2021/07/01 01:51:51;;;;;;;;;;;23.30;44.30;;;;;;8264838;28;19924;-48
2021/07/01 01:55:52;;;;;;;;;;;23.30;44.30;;;;;;8266396;28;19914;-48
2021/07/01 01:59:53;;;;;;;;;;;23.30;44.30;;;;;;8263686;28;19953;-48
2021/07/01 02:03:54;;;;;;;;;;;23.30;44.30;;;;;;8263285;28;20363;-50
2021/07/01 02:07:54;;;;;;;;;;;23.30;44.30;;;;;;8262205;28;19913;-48
2021/07/01 02:11:55;;;;;;;;;;;23.30;44.30;;;;;;8267605;28;20000;-48
2021/07/01 02:15:55;;;;;;;;;;;23.30;44.30;;;;;;8263087;28;19937;-47
2021/07/01 02:19:56;;;;;;;;;;;23.20;44.30;;;;;;8261350;28;19968;-48
2021/07/01 02:23:56;;;;;;;;;;;23.30;44.30;;;;;;8262741;28;19914;-47
2021/07/01 02:27:57;;;;;;;;;;;23.30;44.30;;;;;;8266551;28;20312;-48
2021/07/01 02:31:57;;;;;;;;;;;23.20;44.30;;;;;;8262820;28;19913;-47
2021/07/01 02:35:58;;;;;;;;;;;23.20;44.30;;;;;;8262914;28;20294;-47
2021/07/01 02:39:58;;;;;;;;;;;23.20;44.30;;;;;;8262355;28;19954;-47
2021/07/01 02:43:58;;;;;;;;;;;23.20;44.30;;;;;;8261989;28;19925;-49
2021/07/01 02:47:59;;;;;;;;;;;23.20;44.30;;;;;;8266478;28;20385;-48
2021/07/01 02:51:59;;;;;;;;;;;23.20;44.30;;;;;;8261637;28;19921;-48
2021/07/01 02:56:00;;;;;;;;;;;23.20;44.30;;;;;;8261640;28;19989;-47
2021/07/01 03:00:00;;;;;;;;;;;23.20;44.30;;;;;;8261874;28;20386;-47
2021/07/01 03:04:01;;;;;;;;;;;23.20;44.30;;;;;;8266111;28;19964;-47
2021/07/01 03:08:01;;;;;;;;;;;23.20;44.30;;;;;;8262283;28;20301;-49
2021/07/01 03:12:02;;;;;;;;;;;23.20;44.30;;;;;;8261777;28;20399;-50
2021/07/01 03:16:03;;;;;;;;;;;23.10;44.30;;;;;;8261231;28;20286;-47
2021/07/01 03:20:03;;;;;;;;;;;23.20;44.30;;;;;;8266101;28;19961;-48
2021/07/01 03:24:04;;;;;;;;;;;23.10;44.30;;;;;;8262066;28;19921;-48
2021/07/01 03:28:05;;;;;;;;;;;23.20;44.30;;;;;;8261139;28;19921;-46
2021/07/01 03:32:05;;;;;;;;;;;23.10;44.30;;;;;;8261662;28;19917;-47
2021/07/01 03:36:06;;;;;;;;;;;23.10;44.30;;;;;;8261328;28;19921;-48
2021/07/01 03:40:09;;;;;;;;;;;23.10;44.30;;;;;;8265192;28;20295;-48
2021/07/01 03:44:11;;;;;;;;;;;23.10;44.30;;;;;;8261161;28;19945;-47
2021/07/01 03:48:11;;;;;;;;;;;23.10;44.30;;;;;;8261024;28;19920;-48
2021/07/01 03:52:12;;;;;;;;;;;23.10;44.30;;;;;;8260708;28;20267;-47
2021/07/01 03:56:12;;;;;;;;;;;23.10;44.30;;;;;;8265602;28;19975;-47
2021/07/01 04:00:13;;;;;;;;;;;23.10;44.40;;;;;;8275721;28;19921;-49
2021/07/01 04:04:14;;;;;;;;;;;23.10;44.40;;;;;;8260929;28;19918;-49
2021/07/01 04:08:14;;;;;;;;;;;23.10;44.30;;;;;;8263279;28;19968;-48
2021/07/01 04:12:15;;;;;;;;;;;23.10;44.40;;;;;;8268249;28;20507;-50
2021/07/01 04:16:15;;;;;;;;;;;23.10;44.40;;;;;;8269578;28;20359;-49
2021/07/01 04:20:16;;;;;;;;;;;23.10;44.40;;;;;;8266583;28;19921;-47
2021/07/01 04:24:16;;;;;;;;;;;23.10;44.40;;;;;;8266452;28;19920;-47
2021/07/01 04:28:17;;;;;;;;;;;23.10;44.40;;;;;;8265875;28;20009;-49
2021/07/01 04:32:17;;;;;;;;;;;23.10;44.40;;;;;;8270760;28;19910;-49
2021/07/01 04:36:18;;;;;;;;;;;23.10;44.40;;;;;;8266260;28;19914;-49
2021/07/01 04:40:18;;;;;;;;;;;23.00;44.40;;;;;;8265302;28;20016;-48
2021/07/01 04:44:19;;;;;;;;;;;23.10;44.40;;;;;;8265814;28;19917;-48
2021/07/01 04:48:19;;;;;;;;;;;23.10;44.40;;;;;;8270107;28;20267;-48
2021/07/01 04:52:19;;;;;;;;;;;23.10;44.40;;;;;;8265191;28;19918;-49
2021/07/01 04:56:20;;;;;;;;;;;23.10;44.50;;;;;;8265566;28;20014;-48
2021/07/01 05:00:20;;;;;;;;;;;23.00;44.40;;;;;;8265275;28;19921;-47
2021/07/01 05:04:21;;;;;;;;;;;23.00;44.40;;;;;;8265071;28;19925;-48
2021/07/01 05:08:21;;;;;;;;;;;23.00;44.50;;;;;;8269330;28;19917;-47
2021/07/01 05:12:22;;;;;;;;;;;23.00;44.40;;;;;;8264701;28;19972;-48
2021/07/01 05:16:22;;;;;;;;;;;23.00;44.40;;;;;;8264566;28;19913;-48
2021/07/01 05:20:23;;;;;;;;;;;23.00;44.90;;;;;;8264283;28;20017;-47
2021/07/01 05:24:23;;;;;;;;;;;23.00;44.40;;;;;;8268706;28;19909;-48
2021/07/01 05:28:24;;;;;;;;;;;23.00;44.40;;;;;;8264251;28;20382;-48
2021/07/01 05:32:24;;;;;;;;;;;23.00;44.40;;;;;;8264660;28;19960;-46
2021/07/01 05:36:25;;;;;;;;;;;23.00;44.40;;;;;;8264260;28;19913;-48
2021/07/01 05:40:25;;;;;;;;;;;23.00;44.40;;;;;;8267742;28;19928;-52
2021/07/01 05:44:26;;;;;;;;;;;23.00;44.50;;;;;;8263784;28;19913;-48
2021/07/01 05:48:27;;;;;;;;;;;23.00;44.50;;;;;;8263604;28;19929;-50
2021/07/01 05:52:30;;;;;;;;;;;23.00;44.50;;;;;;8263149;28;19914;-51
2021/07/01 05:56:36;;;;;;;;;;;23.00;44.50;;;;;;8263369;28;19910;-49
2021/07/01 06:00:37;;;;;;;;;;;23.00;44.50;;;;;;8270196;28;20303;-47
2021/07/01 06:04:38;;;;;;;;;;;23.00;44.50;;;;;;8262743;28;20004;-48
2021/07/01 06:08:39;;;;;;;;;;;23.00;44.50;;;;;;8263340;28;19921;-46
2021/07/01 06:12:39;;;;;;;;;;;23.00;44.50;;;;;;8262956;28;20008;-48
2021/07/01 06:16:40;;;;;;;;;;;23.00;44.50;;;;;;8266696;28;19913;-50
2021/07/01 06:20:41;;;;;;;;;;;23.00;44.50;;;;;;8262690;28;19929;-48
2021/07/01 06:24:41;;;;;;;;;;;23.00;44.50;;;;;;8262505;28;20390;-47
2021/07/01 06:28:42;;;;;;;;;;;22.90;44.50;;;;;;8262128;28;19917;-48
2021/07/01 06:32:46;;;;;;;;;;;23.00;44.50;;;;;;8262700;28;20304;-47
2021/07/01 06:36:48;;;;;;;;;;;22.90;44.50;;;;;;8234951;28;20067;-48
2021/07/01 06:40:49;;;;;;;;;;;22.90;44.50;;;;;;8253953;28;19925;-47
2021/07/01 06:44:49;;;;;;;;;;;22.90;44.50;;;;;;8262195;28;19964;-49
2021/07/01 06:48:51;;;;;;;;;;;22.90;44.50;;;;;;8262032;28;19938;-50
2021/07/01 06:52:52;;;;;;;;;;;22.90;44.50;;;;;;8265981;28;19910;-49
2021/07/01 06:56:53;;;;;;;;;;;22.90;44.60;;;;;;8261763;28;19918;-49
2021/07/01 07:00:53;;;;;;;;;;;22.90;44.50;;;;;;8261756;28;19922;-50
2021/07/01 07:04:54;;;;;;;;;;;22.90;44.60;;;;;;8261371;28;19918;-52
2021/07/01 07:08:55;;;;;;;;;;;22.90;44.60;;;;;;8266015;28;20287;-50
2021/07/01 07:12:56;;;;;;;;;;;22.90;44.60;;;;;;8261312;28;19914;-50
2021/07/01 07:16:58;;;;;;;;;;;22.90;44.60;;;;;;8229515;28;19960;-47
2021/07/01 07:20:59;;;;;;;;;;;22.90;44.60;;;;;;8229810;28;19940;-48
2021/07/01 07:25:02;;;;;;;;;;;22.90;44.60;;;;;;8253451;28;19925;-48
2021/07/01 07:29:02;;;;;;;;;;;22.90;44.60;;;;;;8265745;28;20379;-50
2021/07/01 07:33:04;;;;;;;;;;;22.90;44.60;;;;;;8261576;28;19948;-48
2021/07/01 07:37:05;;;;;;;;;;;22.90;44.60;;;;;;8260847;28;20268;-48
2021/07/01 07:41:06;;;;;;;;;;;22.90;44.60;;;;;;8261383;28;19921;-49
2021/07/01 07:45:07;;;;;;;;;;;22.90;44.60;;;;;;8271918;28;19932;-49
2021/07/01 07:49:08;;;;;;;;;;;22.90;44.60;;;;;;8266976;28;20374;-48
2021/07/01 07:53:10;;;;;;;;;;;23.00;44.60;;;;;;8267550;28;19960;-49
2021/07/01 07:57:11;;;;;;;;;;;22.90;44.60;;;;;;8267365;28;19953;-50
2021/07/01 08:01:12;;;;;;;;;;;22.90;44.60;;;;;;8266424;28;19969;-49
2021/07/01 08:05:13;;;;;;;;;;;22.90;44.60;;;;;;8271497;28;19944;-49
2021/07/01 08:09:14;;;;;;;;;;;23.00;44.60;;;;;;8267025;28;19960;-48
2021/07/01 08:13:19;;;;;;;;;;;23.00;44.60;;;;;;8266735;28;20263;-49
2021/07/01 08:17:20;;;;;;;;;;;23.00;44.60;;;;;;8266898;28;20430;-51
2021/07/01 08:21:20;;;;;;;;;;;23.00;44.60;;;;;;8270867;28;19918;-52
2021/07/01 08:25:22;;;;;;;;;;;23.00;44.60;;;;;;8266028;28;19917;-48
2021/07/01 08:29:22;;;;;;;;;;;23.00;44.60;;;;;;8266032;28;20013;-50
2021/07/01 08:33:28;;;;;;;;;;;23.10;44.60;;;;;;8257756;28;19914;-47
2021/07/01 08:37:29;;;;;;;;;;;23.10;44.60;;;;;;8235553;28;19910;-49
2021/07/01 08:41:30;;;;;;;;;;;23.10;44.60;;;;;;8268496;28;19922;-47
2021/07/01 08:45:41;;;;;;;;;;;23.10;44.60;;;;;;8265848;28;19968;-50
2021/07/01 08:49:41;;;;;;;;;;;23.10;44.60;;;;;;8280238;28;20264;-49
2021/07/01 08:53:56;;;;;;;;;;;23.10;44.50;;;;;;8264793;28;19917;-48
2021/07/01 08:57:58;;;;;;;;;;;23.10;44.50;;;;;;8269355;28;19968;-49
2021/07/01 09:02:01;;;;;;;;;;;23.20;44.50;;;;;;8265120;28;19925;-47
2021/07/01 09:06:03;;;;;;;;;;;23.20;44.50;;;;;;8265329;28;19917;-48
2021/07/01 09:10:07;;;;;;;;;;;23.20;44.50;;;;;;8264404;28;19925;-48
2021/07/01 09:14:09;;;;;;;;;;;23.20;44.50;;;;;;8264940;28;19925;-49
2021/07/01 09:18:11;;;;;;;;;;;23.20;44.40;;;;;;8269166;28;20371;-49
2021/07/01 09:22:13;;;;;;;;;;;23.20;44.40;;;;;;8264492;28;20335;-49
2021/07/01 09:26:20;;;;;;;;;;;23.20;44.40;;;;;;8264608;28;19925;-48
2021/07/01 09:30:25;;;;;;;;;;;23.20;44.40;;;;;;8264505;28;19909;-48
2021/07/01 09:34:26;;;;;;;;;;;23.20;44.40;;;;;;8268131;28;19960;-49
2021/07/01 09:38:26;;;;;;;;;;;23.20;44.40;;;;;;8264684;28;20294;-48
2021/07/01 09:42:29;;;;;;;;;;;23.20;44.40;;;;;;8264082;28;19921;-47
2021/07/01 09:46:30;;;;;;;;;;;23.20;44.40;;;;;;8263511;28;20330;-47
2021/07/01 09:50:33;;;;;;;;;;;23.30;44.40;;;;;;8264163;28;19916;-47
2021/07/01 09:54:34;;;;;;;;;;;23.20;44.40;;;;;;8268103;28;19918;-46
2021/07/01 09:58:42;;;;;;;;;;;23.30;44.40;;;;;;8263234;28;19921;-47
2021/07/01 10:02:42;;;;;;;;;;;23.30;44.40;;;;;;8263285;28;19950;-47
2021/07/01 10:06:43;;;;;;;;;;;23.30;44.30;;;;;;8263462;28;19917;-51
2021/07/01 10:10:47;;;;;;;;;;;23.30;44.30;;;;;;8266249;28;20411;-47
2021/07/01 10:19:26;;;;;;;;;;;23.40;44.30;;;;;;8250552;28;19936;-50
2021/07/01 10:23:28;;;;;;;;;;;23.40;44.30;;;;;;8259261;28;19914;-48
2021/07/01 10:27:30;;;;;;;;;;;23.40;44.20;;;;;;8262722;28;20016;-47
2021/07/01 10:31:52;;;;;;;;;;;23.40;44.20;;;;;;8266465;28;19921;-47
2021/07/01 10:35:55;;;;;;;;;;;23.40;44.20;;;;;;8263880;28;20367;-49
2021/07/01 10:39:55;;;;;;;;;;;23.50;44.20;;;;;;8262549;28;19964;-47
2021/07/01 10:43:56;;;;;;;;;;;23.50;44.10;;;;;;8261925;28;19960;-47
2021/07/01 10:48:09;;;;;;;;;;;23.50;44.10;;;;;;8262084;28;19972;-48
2021/07/01 10:52:10;;;;;;;;;;;23.50;44.00;;;;;;8266124;28;19913;-47
2021/07/01 10:56:16;;;;;;;;;;;23.50;44.00;;;;;;8261761;28;19918;-50
2021/07/01 11:00:17;;;;;;;;;;;23.50;43.90;;;;;;8261674;28;19921;-47
2021/07/01 11:04:19;;;;;;;;;;;23.60;43.90;;;;;;8261762;28;20275;-47
2021/07/01 11:08:30;;;;;;;;;;;23.60;43.90;;;;;;8263078;28;19949;-47
2021/07/01 11:12:39;;;;;;;;;;;23.60;43.90;;;;;;8234039;28;19921;-48
2021/07/01 11:16:46;;;;;;;;;;;23.60;43.80;;;;;;8258090;28;19968;-48
2021/07/01 11:21:04;;;;;;;;;;;23.70;43.80;;;;;;8272174;28;19926;-48
2021/07/01 11:25:19;;;;;;;;;;;23.70;43.80;;;;;;8271684;28;19910;-47
2021/07/01 11:29:32;;;;;;;;;;;23.70;43.70;;;;;;8272261;28;19917;-50
2021/07/01 11:33:33;;;;;;;;;;;23.70;43.70;;;;;;8280351;28;19918;-47
2021/07/01 11:37:37;;;;;;;;;;;23.70;43.70;;;;;;8246052;28;19961;-47
2021/07/01 11:41:39;;;;;;;;;;;23.70;43.70;;;;;;8257678;28;19929;-48
2021/07/01 11:45:40;;;;;;;;;;;23.80;43.60;;;;;;8272016;28;19910;-51
2021/07/01 11:49:41;;;;;;;;;;;23.80;43.60;;;;;;8275854;28;20271;-46
2021/07/01 11:53:42;;;;;;;;;;;23.90;43.60;;;;;;8271677;28;19937;-47
2021/07/01 11:57:42;;;;;;;;;;;23.90;43.60;;;;;;8271671;28;19910;-50
2021/07/01 12:01:43;;;;;;;;;;;23.90;43.60;;;;;;8271258;28;19925;-46
2021/07/01 12:05:44;;;;;;;;;;;23.90;43.50;;;;;;8271556;28;20357;-51
2021/07/01 12:09:45;;;;;;;;;;;23.90;43.40;;;;;;8275820;28;19913;-47
2021/07/01 12:13:46;;;;;;;;;;;24.00;43.50;;;;;;8270935;28;19935;-50
2021/07/01 12:18:00;;;;;;;;;;;24.00;43.40;;;;;;8271639;28;20008;-48
2021/07/01 12:22:02;;;;;;;;;;;24.00;43.40;;;;;;8271197;28;19922;-48
2021/07/01 12:26:02;;;;;;;;;;;24.00;43.30;;;;;;8275508;28;19920;-49
2021/07/01 12:30:03;;;;;;;;;;;24.10;43.30;;;;;;8265393;28;19918;-49
2021/07/01 12:34:05;;;;;;;;;;;24.10;43.30;;;;;;8265523;28;20329;-51
2021/07/01 12:38:09;;;;;;;;;;;24.10;43.30;;;;;;8265987;28;20287;-50
2021/07/01 12:42:10;;;;;;;;;;;24.00;43.20;;;;;;8265735;28;19929;-51
2021/07/01 12:46:10;;;;;;;;;;;24.10;43.30;;;;;;8269693;28;20393;-47
2021/07/01 12:50:11;;;;;;;;;;;24.10;43.30;;;;;;8265740;28;19913;-50
2021/07/01 12:54:15;;;;;;;;;;;24.10;43.30;;;;;;8265870;28;20431;-48
2021/07/01 12:58:15;;;;;;;;;;;24.10;43.30;;;;;;8265020;28;19960;-48
2021/07/01 13:02:19;;;;;;;;;;;24.10;43.30;;;;;;8269468;28;19964;-48
2021/07/01 13:06:19;;;;;;;;;;;24.10;43.20;;;;;;8265057;28;19917;-47
2021/07/01 13:10:21;;;;;;;;;;;24.20;43.20;;;;;;8263741;28;19914;-50
2021/07/01 13:14:22;;;;;;;;;;;24.10;43.20;;;;;;8265296;28;19909;-50
2021/07/01 13:18:22;;;;;;;;;;;24.20;43.20;;;;;;8265710;28;19917;-48
2021/07/01 13:22:24;;;;;;;;;;;24.20;43.70;;;;;;8267234;28;19925;-47
2021/07/01 13:26:30;;;;;;;;;;;24.20;43.10;;;;;;8264888;28;19913;-47
2021/07/01 13:30:32;;;;;;;;;;;24.20;43.10;;;;;;8273481;28;19914;-49
2021/07/01 13:34:33;;;;;;;;;;;24.20;43.20;;;;;;8267334;28;19925;-48
2021/07/01 13:38:37;;;;;;;;;;;24.30;43.20;;;;;;8270767;28;19929;-53
2021/07/01 13:42:37;;;;;;;;;;;24.30;43.10;;;;;;8263718;28;20276;-51
2021/07/01 13:46:38;;;;;;;;;;;24.30;43.10;;;;;;8276483;28;19949;-51
2021/07/01 13:50:47;;;;;;;;;;;24.30;43.10;;;;;;8271653;28;19914;-50
2021/07/01 13:54:48;;;;;;;;;;;24.30;43.10;;;;;;8281199;28;19910;-49
2021/07/01 13:58:50;;;;;;;;;;;24.30;43.10;;;;;;8265853;28;20385;-51
2021/07/01 14:02:51;;;;;;;;;;;24.30;43.00;;;;;;8263005;28;19922;-52
2021/07/01 14:06:51;;;;;;;;;;;24.30;42.90;;;;;;8265011;28;20362;-48
2021/07/01 14:10:59;;;;;;;;;;;24.30;43.00;;;;;;8262273;28;20013;-50
2021/07/01 14:14:59;;;;;;;;;;;24.30;42.90;;;;;;8266776;28;19910;-49
2021/07/01 14:19:01;;;;;;;;;;;24.30;42.80;;;;;;8261830;28;20350;-47
2021/07/01 14:23:02;;;;;;;;;;;24.40;42.90;;;;;;8262694;28;19928;-48
2021/07/01 14:27:03;;;;;;;;;;;24.30;42.80;;;;;;8262585;28;20071;-48
2021/07/01 14:31:07;;;;;;;;;;;24.30;42.80;;;;;;8267066;28;20367;-50
2021/07/01 14:35:23;;;;;;;;;;;24.40;42.90;;;;;;8264722;28;19918;-50
2021/07/01 14:39:24;;;;;;;;;;;24.40;42.80;;;;;;8262018;28;19953;-50
2021/07/01 14:43:35;;;;;;;;;;;24.40;42.80;;;;;;8261574;28;19920;-48
2021/07/01 14:47:42;;;;;;;;;;;24.40;42.80;;;;;;8267027;28;19921;-49
2021/07/01 14:51:50;;;;;;;;;;;24.40;42.80;;;;;;8265852;28;19933;-50
2021/07/01 14:55:50;;;;;;;;;;;24.40;42.80;;;;;;8234203;28;19922;-50
2021/07/01 14:59:52;;;;;;;;;;;24.40;42.80;;;;;;8244714;28;19936;-47
2021/07/01 15:04:03;;;;;;;;;;;24.40;42.80;;;;;;8261271;28;19925;-50
2021/07/01 15:08:11;;;;;;;;;;;24.40;42.80;;;;;;8238010;28;19913;-48
2021/07/01 15:12:16;;;;;;;;;;;24.40;42.80;;;;;;8270834;28;19917;-51
2021/07/01 15:16:18;;;;;;;;;;;24.40;42.80;;;;;;8261248;28;20354;-50
2021/07/01 15:20:19;;;;;;;;;;;24.30;42.80;;;;;;8261419;28;19922;-51
2021/07/01 15:24:21;;;;;;;;;;;24.40;42.70;;;;;;8264582;28;19976;-50
2021/07/01 15:28:21;;;;;;;;;;;24.40;42.80;;;;;;8285033;28;20283;-51
2021/07/01 15:32:25;;;;;;;;;;;24.40;42.80;;;;;;8264286;28;19917;-50
2021/07/01 15:36:25;;;;;;;;;;;24.40;42.70;;;;;;8261412;28;19921;-51
2021/07/01 15:40:26;;;;;;;;;;;24.40;42.70;;;;;;8260611;28;19921;-52
2021/07/01 15:44:26;;;;;;;;;;;24.40;42.70;;;;;;8260898;28;19917;-50
2021/07/01 15:48:27;;;;;;;;;;;24.40;42.70;;;;;;8265385;28;20389;-49
2021/07/01 15:52:28;;;;;;;;;;;24.40;42.80;;;;;;8261233;28;19917;-51
2021/07/01 15:56:28;;;;;;;;;;;24.40;42.70;;;;;;8264580;28;20004;-52
2021/07/01 16:00:29;;;;;;;;;;;24.40;42.70;;;;;;8258653;28;20383;-51
2021/07/01 16:04:31;;;;;;;;;;;24.40;42.70;;;;;;8280775;28;19917;-50
2021/07/01 16:08:32;;;;;;;;;;;24.40;42.70;;;;;;8266962;28;19913;-48
2021/07/01 16:12:32;;;;;;;;;;;24.40;42.70;;;;;;8266661;28;19917;-47
2021/07/01 16:16:33;;;;;;;;;;;24.40;42.70;;;;;;8266075;28;19917;-52
2021/07/01 16:20:36;;;;;;;;;;;24.40;42.70;;;;;;8266557;28;19929;-48
2021/07/01 16:24:37;;;;;;;;;;;24.40;42.70;;;;;;8270691;28;19940;-52
2021/07/01 16:28:37;;;;;;;;;;;24.40;42.70;;;;;;8265709;28;20000;-52
2021/07/01 16:32:38;;;;;;;;;;;24.40;42.70;;;;;;8266414;28;19920;-50
2021/07/01 16:36:38;;;;;;;;;;;24.40;42.70;;;;;;8265996;28;19910;-49
2021/07/01 16:40:40;;;;;;;;;;;24.30;42.70;;;;;;8269748;28;19922;-48
2021/07/01 16:44:40;;;;;;;;;;;24.30;42.70;;;;;;8265790;28;19922;-48
2021/07/01 16:48:43;;;;;;;;;;;24.30;42.70;;;;;;8265499;28;19938;-51
2021/07/01 16:52:44;;;;;;;;;;;24.40;42.70;;;;;;8264996;28;19945;-48
2021/07/01 16:56:48;;;;;;;;;;;24.40;42.70;;;;;;8267829;28;19979;-48
2021/07/01 17:00:53;;;;;;;;;;;24.30;42.70;;;;;;8268373;28;19932;-52
2021/07/01 17:04:54;;;;;;;;;;;24.40;42.70;;;;;;8264938;28;20478;-48
2021/07/01 17:08:55;;;;;;;;;;;24.40;42.70;;;;;;8265356;28;19909;-48
2021/07/01 17:12:57;;;;;;;;;;;24.30;42.70;;;;;;8264953;28;19920;-51
2021/07/01 17:16:58;;;;;;;;;;;24.30;42.60;;;;;;8268287;28;19910;-51
2021/07/01 17:20:59;;;;;;;;;;;24.30;42.70;;;;;;8264664;28;19921;-51
2021/07/01 17:25:00;;;;;;;;;;;24.30;42.70;;;;;;8263943;28;19956;-49
2021/07/01 17:29:02;;;;;;;;;;;24.30;42.60;;;;;;8264138;28;19914;-50
2021/07/01 17:33:03;;;;;;;;;;;24.30;42.70;;;;;;8268672;28;20391;-49
2021/07/01 17:37:07;;;;;;;;;;;24.30;42.70;;;;;;8263852;28;19950;-48
2021/07/01 17:41:07;;;;;;;;;;;24.30;43.20;;;;;;8263823;28;19922;-51
2021/07/01 17:45:08;;;;;;;;;;;24.30;42.70;;;;;;8263909;28;19916;-52
2021/07/01 17:49:11;;;;;;;;;;;24.30;42.60;;;;;;8263081;28;19929;-50
2021/07/01 17:53:12;;;;;;;;;;;24.30;43.20;;;;;;8267862;28;20287;-47
2021/07/01 17:57:12;;;;;;;;;;;24.30;42.70;;;;;;8263649;28;19913;-48
2021/07/01 18:01:13;;;;;;;;;;;24.30;42.60;;;;;;8262778;28;19921;-48
2021/07/01 18:05:13;;;;;;;;;;;24.30;42.60;;;;;;8263079;28;20299;-47
2021/07/01 18:09:27;;;;;;;;;;;24.30;42.60;;;;;;8267526;28;19910;-47
2021/07/01 18:13:27;;;;;;;;;;;24.30;42.60;;;;;;8262432;28;19969;-51
2021/07/01 18:17:30;;;;;;;;;;;24.30;42.60;;;;;;8262886;28;20260;-51
2021/07/01 18:21:30;;;;;;;;;;;24.30;42.60;;;;;;8262746;28;20310;-48
2021/07/01 18:25:31;;;;;;;;;;;24.20;42.50;;;;;;8261455;28;19932;-47
2021/07/01 18:29:33;;;;;;;;;;;24.30;42.50;;;;;;8266927;28;19910;-47
2021/07/01 18:33:33;;;;;;;;;;;24.30;42.50;;;;;;8262637;28;19987;-46
2021/07/01 18:37:34;;;;;;;;;;;24.30;42.50;;;;;;8262373;28;19914;-46
2021/07/01 18:41:35;;;;;;;;;;;24.30;42.50;;;;;;8262330;28;19937;-47
2021/07/01 18:45:36;;;;;;;;;;;24.30;42.50;;;;;;8266658;28;19910;-50
2021/07/01 18:49:36;;;;;;;;;;;24.30;42.50;;;;;;8261334;28;19961;-50
2021/07/01 18:53:37;;;;;;;;;;;24.20;42.40;;;;;;8262061;28;20429;-51
2021/07/01 18:57:37;;;;;;;;;;;24.30;42.50;;;;;;8252521;28;19960;-51
2021/07/01 19:01:41;;;;;;;;;;;24.30;42.50;;;;;;8231209;28;19918;-50
2021/07/01 19:05:44;;;;;;;;;;;24.20;42.50;;;;;;8234120;28;19926;-47
2021/07/01 19:09:45;;;;;;;;;;;24.20;42.50;;;;;;8253329;28;19917;-46
2021/07/01 19:13:45;;;;;;;;;;;24.20;42.50;;;;;;8261116;28;19914;-48
2021/07/01 19:17:49;;;;;;;;;;;24.20;42.50;;;;;;8261423;28;19917;-47
2021/07/01 19:21:50;;;;;;;;;;;24.20;42.50;;;;;;8265587;28;20025;-47
2021/07/01 19:25:50;;;;;;;;;;;24.20;42.50;;;;;;8260139;28;19914;-49
2021/07/01 19:29:51;;;;;;;;;;;24.20;42.50;;;;;;8261642;28;19914;-48
2021/07/01 19:33:52;;;;;;;;;;;24.20;42.50;;;;;;8261298;28;20359;-47
2021/07/01 19:37:54;;;;;;;;;;;24.20;42.60;;;;;;8267051;28;19914;-47
2021/07/01 19:41:57;;;;;;;;;;;24.20;42.60;;;;;;8267387;28;19922;-50
2021/07/01 19:45:58;;;;;;;;;;;24.20;42.60;;;;;;8267096;28;19910;-46
2021/07/01 19:49:58;;;;;;;;;;;24.10;42.60;;;;;;8255033;28;19960;-47
2021/07/01 19:53:58;;;;;;;;;;;24.20;42.70;;;;;;8238693;28;20371;-49
2021/07/01 19:57:59;;;;;;;;;;;24.10;42.60;;;;;;8271157;28;19921;-49
2021/07/01 20:02:00;;;;;;;;;;;24.10;42.60;;;;;;8267544;28;19957;-50
2021/07/01 20:06:00;;;;;;;;;;;24.10;42.70;;;;;;8267250;28;19917;-49
2021/07/01 20:10:02;;;;;;;;;;;24.10;42.70;;;;;;8266585;28;19936;-48
2021/07/01 20:14:02;;;;;;;;;;;24.10;42.70;;;;;;8271614;28;19910;-47
2021/07/01 20:18:03;;;;;;;;;;;24.10;42.70;;;;;;8265930;28;20368;-49
2021/07/01 20:22:03;;;;;;;;;;;24.10;42.70;;;;;;8247025;28;20343;-49
2021/07/01 20:26:04;;;;;;;;;;;24.10;42.70;;;;;;8244965;28;19997;-51
2021/07/01 20:30:05;;;;;;;;;;;24.10;42.70;;;;;;8267498;28;19924;-51
2021/07/01 20:34:05;;;;;;;;;;;24.10;42.80;;;;;;8237800;28;19910;-49
2021/07/01 20:38:06;;;;;;;;;;;24.10;42.80;;;;;;8257474;28;19914;-47
2021/07/01 20:42:06;;;;;;;;;;;24.10;42.80;;;;;;8266691;28;19976;-47
2021/07/01 20:46:07;;;;;;;;;;;24.00;42.70;;;;;;8265397;28;20405;-47
2021/07/01 20:50:09;;;;;;;;;;;24.00;42.70;;;;;;8268905;28;19979;-48
2021/07/01 20:54:09;;;;;;;;;;;24.00;43.20;;;;;;8265823;28;19913;-49
2021/07/01 20:58:10;;;;;;;;;;;24.00;42.70;;;;;;8265063;28;20363;-48
2021/07/01 21:02:10;;;;;;;;;;;24.00;42.70;;;;;;8265497;28;19926;-47
2021/07/01 21:06:11;;;;;;;;;;;24.00;43.30;;;;;;8270155;28;19921;-47
2021/07/01 21:10:13;;;;;;;;;;;24.00;42.80;;;;;;8264715;28;20004;-48
2021/07/01 21:14:13;;;;;;;;;;;24.00;42.80;;;;;;8265439;28;19914;-49
2021/07/01 21:18:14;;;;;;;;;;;24.00;42.80;;;;;;8264886;28;20331;-46
2021/07/01 21:22:15;;;;;;;;;;;24.00;42.80;;;;;;8264529;28;19921;-47
2021/07/01 21:26:15;;;;;;;;;;;24.00;42.80;;;;;;8269333;28;19921;-48
2021/07/01 21:30:16;;;;;;;;;;;24.00;42.80;;;;;;8264712;28;20410;-51
2021/07/01 21:34:17;;;;;;;;;;;24.00;42.80;;;;;;8263940;28;20004;-47
2021/07/01 21:38:17;;;;;;;;;;;23.90;42.70;;;;;;8264233;28;20394;-47
2021/07/01 21:42:21;;;;;;;;;;;24.00;42.90;;;;;;8268486;28;20040;-51
2021/07/01 21:46:23;;;;;;;;;;;24.00;42.80;;;;;;8263573;28;19921;-48
2021/07/01 21:50:25;;;;;;;;;;;23.90;42.80;;;;;;8263926;28;20346;-48
2021/07/01 21:54:25;;;;;;;;;;;24.00;42.80;;;;;;8263191;28;19992;-48
2021/07/01 21:58:26;;;;;;;;;;;23.90;42.80;;;;;;8264340;28;20295;-47
2021/07/01 22:02:27;;;;;;;;;;;23.90;42.80;;;;;;8248857;28;20008;-47
2021/07/01 22:06:28;;;;;;;;;;;23.90;42.80;;;;;;8254805;28;19914;-47
2021/07/01 22:10:28;;;;;;;;;;;23.90;42.80;;;;;;8277902;28;19913;-47
2021/07/01 22:14:30;;;;;;;;;;;23.90;42.80;;;;;;8263007;28;20015;-48
2021/07/01 22:18:31;;;;;;;;;;;23.90;42.80;;;;;;8267501;28;19914;-47
2021/07/01 22:22:34;;;;;;;;;;;23.90;42.80;;;;;;8262444;28;19937;-47
2021/07/01 22:26:34;;;;;;;;;;;23.90;42.80;;;;;;8262737;28;20416;-47
2021/07/01 22:30:35;;;;;;;;;;;23.90;42.80;;;;;;8262688;28;19913;-47
2021/07/01 22:34:39;;;;;;;;;;;23.90;42.80;;;;;;8266556;28;19952;-47
2021/07/01 22:38:39;;;;;;;;;;;23.90;42.80;;;;;;8262366;28;20318;-48
2021/07/01 22:42:40;;;;;;;;;;;23.80;42.80;;;;;;8262269;28;19918;-47
2021/07/01 22:46:40;;;;;;;;;;;23.80;42.80;;;;;;8262318;28;19913;-48
2021/07/01 22:50:41;;;;;;;;;;;23.80;42.80;;;;;;8262369;28;19914;-47
2021/07/01 22:54:41;;;;;;;;;;;23.80;42.80;;;;;;8266448;28;20425;-47
2021/07/01 22:58:42;;;;;;;;;;;23.80;42.80;;;;;;8261451;28;19952;-48
2021/07/01 23:02:42;;;;;;;;;;;23.80;42.80;;;;;;8261831;28;19925;-47
2021/07/01 23:06:43;;;;;;;;;;;23.80;42.80;;;;;;8261904;28;19914;-48
2021/07/01 23:10:44;;;;;;;;;;;23.80;42.80;;;;;;8265864;28;19914;-48
2021/07/01 23:14:45;;;;;;;;;;;23.80;42.80;;;;;;8260984;28;19918;-47
2021/07/01 23:18:45;;;;;;;;;;;23.80;42.80;;;;;;8261610;28;19946;-47
2021/07/01 23:22:46;;;;;;;;;;;23.80;42.80;;;;;;8259906;28;19922;-48
2021/07/01 23:26:47;;;;;;;;;;;23.70;42.80;;;;;;8265793;28;19916;-48
2021/07/01 23:30:47;;;;;;;;;;;23.70;42.80;;;;;;8261479;28;19936;-47